sensor_id;sensor_type;location;lat;lon;timestamp;P1;durP1;ratioP1;P2;durP2;ratioP2
71570;SDS011;59407;42.682;23.322;2022-07-26T00:00:13;14.47;;;9.33;;
71570;SDS011;59407;42.682;23.322;2022-07-26T00:02:40;14.40;;;10.05;;
71570;SDS011;59407;42.682;23.322;2022-07-26T00:05:06;14.00;;;9.90;;
71570;SDS011;59407;42.682;23.322;2022-07-26T00:07:32;15.40;;;10.67;;
71570;SDS011;59407;42.682;23.322;2022-07-26T00:09:57;15.68;;;10.95;;
71570;SDS011;59407;42.682;23.322;2022-07-26T00:12:23;14.07;;;11.07;;
71570;SDS011;59407;42.682;23.322;2022-07-26T00:14:48;14.50;;;11.00;;
71570;SDS011;59407;42.682;23.322;2022-07-26T00:17:14;15.00;;;10.30;;
71570;SDS011;59407;42.682;23.322;2022-07-26T00:19:39;14.90;;;10.87;;
71570;SDS011;59407;42.682;23.322;2022-07-26T00:22:04;14.30;;;11.43;;
71570;SDS011;59407;42.682;23.322;2022-07-26T00:24:49;16.38;;;11.82;;
71570;SDS011;59407;42.682;23.322;2022-07-26T00:27:14;18.03;;;12.03;;
71570;SDS011;59407;42.682;23.322;2022-07-26T00:29:40;17.65;;;12.48;;
71570;SDS011;59407;42.682;23.322;2022-07-26T00:32:05;14.63;;;11.07;;
71570;SDS011;59407;42.682;23.322;2022-07-26T00:34:31;18.27;;;12.17;;
71570;SDS011;59407;42.682;23.322;2022-07-26T00:36:56;13.43;;;10.93;;
71570;SDS011;59407;42.682;23.322;2022-07-26T00:39:21;17.03;;;11.53;;
71570;SDS011;59407;42.682;23.322;2022-07-26T00:41:48;16.10;;;11.03;;
71570;SDS011;59407;42.682;23.322;2022-07-26T00:44:15;15.15;;;11.38;;
71570;SDS011;59407;42.682;23.322;2022-07-26T00:46:44;15.07;;;12.05;;
71570;SDS011;59407;42.682;23.322;2022-07-26T00:49:09;16.35;;;11.70;;
71570;SDS011;59407;42.682;23.322;2022-07-26T00:51:35;15.47;;;12.13;;
71570;SDS011;59407;42.682;23.322;2022-07-26T00:57:26;15.97;;;11.53;;
71570;SDS011;59407;42.682;23.322;2022-07-26T01:00:14;16.45;;;11.35;;
71570;SDS011;59407;42.682;23.322;2022-07-26T01:03:27;17.63;;;12.00;;
71570;SDS011;59407;42.682;23.322;2022-07-26T01:09:17;15.50;;;11.25;;
71570;SDS011;59407;42.682;23.322;2022-07-26T01:11:46;15.67;;;11.03;;
71570;SDS011;59407;42.682;23.322;2022-07-26T01:20:39;18.15;;;11.30;;
71570;SDS011;59407;42.682;23.322;2022-07-26T01:23:08;15.63;;;11.68;;
71570;SDS011;59407;42.682;23.322;2022-07-26T01:25:34;15.33;;;11.93;;
71570;SDS011;59407;42.682;23.322;2022-07-26T01:28:01;17.38;;;12.60;;
71570;SDS011;59407;42.682;23.322;2022-07-26T01:30:26;19.23;;;13.13;;
71570;SDS011;59407;42.682;23.322;2022-07-26T01:32:52;16.33;;;11.40;;
71570;SDS011;59407;42.682;23.322;2022-07-26T01:35:18;17.00;;;11.93;;
71570;SDS011;59407;42.682;23.322;2022-07-26T01:37:43;15.77;;;12.00;;
71570;SDS011;59407;42.682;23.322;2022-07-26T01:40:09;18.08;;;12.60;;
71570;SDS011;59407;42.682;23.322;2022-07-26T01:42:34;15.03;;;12.30;;
71570;SDS011;59407;42.682;23.322;2022-07-26T01:45:00;15.15;;;11.48;;
71570;SDS011;59407;42.682;23.322;2022-07-26T01:47:26;16.07;;;11.37;;
71570;SDS011;59407;42.682;23.322;2022-07-26T01:49:51;15.82;;;12.15;;
71570;SDS011;59407;42.682;23.322;2022-07-26T01:52:17;16.67;;;11.17;;
71570;SDS011;59407;42.682;23.322;2022-07-26T01:54:43;16.90;;;12.30;;
71570;SDS011;59407;42.682;23.322;2022-07-26T01:57:08;19.83;;;11.75;;
71570;SDS011;59407;42.682;23.322;2022-07-26T01:59:34;17.13;;;12.63;;
71570;SDS011;59407;42.682;23.322;2022-07-26T02:01:59;17.67;;;12.65;;
71570;SDS011;59407;42.682;23.322;2022-07-26T02:04:24;21.57;;;12.03;;
71570;SDS011;59407;42.682;23.322;2022-07-26T02:07:10;15.45;;;11.82;;
71570;SDS011;59407;42.682;23.322;2022-07-26T02:09:36;17.00;;;11.73;;
71570;SDS011;59407;42.682;23.322;2022-07-26T02:12:01;17.20;;;12.03;;
71570;SDS011;59407;42.682;23.322;2022-07-26T02:14:27;16.67;;;12.02;;
71570;SDS011;59407;42.682;23.322;2022-07-26T02:16:53;15.47;;;12.03;;
71570;SDS011;59407;42.682;23.322;2022-07-26T02:19:23;16.70;;;11.52;;
71570;SDS011;59407;42.682;23.322;2022-07-26T02:21:51;18.23;;;12.00;;
71570;SDS011;59407;42.682;23.322;2022-07-26T02:24:17;19.02;;;12.23;;
71570;SDS011;59407;42.682;23.322;2022-07-26T02:26:42;18.93;;;12.40;;
71570;SDS011;59407;42.682;23.322;2022-07-26T02:29:07;17.93;;;12.27;;
71570;SDS011;59407;42.682;23.322;2022-07-26T02:31:33;17.37;;;11.87;;
71570;SDS011;59407;42.682;23.322;2022-07-26T02:33:58;16.58;;;12.10;;
71570;SDS011;59407;42.682;23.322;2022-07-26T02:36:24;16.47;;;12.47;;
71570;SDS011;59407;42.682;23.322;2022-07-26T02:38:49;18.40;;;12.77;;
71570;SDS011;59407;42.682;23.322;2022-07-26T02:41:15;16.65;;;12.50;;
71570;SDS011;59407;42.682;23.322;2022-07-26T02:43:41;16.97;;;12.83;;
71570;SDS011;59407;42.682;23.322;2022-07-26T02:46:06;16.33;;;11.60;;
71570;SDS011;59407;42.682;23.322;2022-07-26T02:48:32;17.77;;;12.13;;
71570;SDS011;59407;42.682;23.322;2022-07-26T02:50:57;17.20;;;13.00;;
71570;SDS011;59407;42.682;23.322;2022-07-26T02:53:23;18.65;;;12.75;;
71570;SDS011;59407;42.682;23.322;2022-07-26T02:55:48;15.50;;;11.67;;
71570;SDS011;59407;42.682;23.322;2022-07-26T02:58:14;17.23;;;12.63;;
71570;SDS011;59407;42.682;23.322;2022-07-26T03:00:39;17.03;;;12.23;;
71570;SDS011;59407;42.682;23.322;2022-07-26T03:03:04;16.05;;;12.13;;
71570;SDS011;59407;42.682;23.322;2022-07-26T03:05:30;16.47;;;12.13;;
71570;SDS011;59407;42.682;23.322;2022-07-26T03:07:55;15.37;;;12.67;;
71570;SDS011;59407;42.682;23.322;2022-07-26T03:10:21;16.00;;;12.50;;
71570;SDS011;59407;42.682;23.322;2022-07-26T03:12:46;14.97;;;11.37;;
71570;SDS011;59407;42.682;23.322;2022-07-26T03:15:11;16.42;;;11.48;;
71570;SDS011;59407;42.682;23.322;2022-07-26T03:17:37;15.63;;;11.57;;
71570;SDS011;59407;42.682;23.322;2022-07-26T03:20:03;15.70;;;11.73;;
71570;SDS011;59407;42.682;23.322;2022-07-26T03:22:29;16.83;;;11.45;;
71570;SDS011;59407;42.682;23.322;2022-07-26T03:24:54;18.93;;;12.33;;
71570;SDS011;59407;42.682;23.322;2022-07-26T03:27:20;15.30;;;11.17;;
71570;SDS011;59407;42.682;23.322;2022-07-26T03:29:45;16.37;;;11.17;;
71570;SDS011;59407;42.682;23.322;2022-07-26T03:32:11;15.17;;;11.73;;
71570;SDS011;59407;42.682;23.322;2022-07-26T03:34:36;17.17;;;10.97;;
71570;SDS011;59407;42.682;23.322;2022-07-26T03:37:02;16.80;;;11.33;;
71570;SDS011;59407;42.682;23.322;2022-07-26T03:39:27;18.67;;;11.57;;
71570;SDS011;59407;42.682;23.322;2022-07-26T03:41:53;18.37;;;11.73;;
71570;SDS011;59407;42.682;23.322;2022-07-26T03:44:18;17.63;;;11.97;;
71570;SDS011;59407;42.682;23.322;2022-07-26T03:46:44;17.98;;;12.88;;
71570;SDS011;59407;42.682;23.322;2022-07-26T03:49:09;18.33;;;12.40;;
71570;SDS011;59407;42.682;23.322;2022-07-26T03:51:34;19.67;;;12.80;;
71570;SDS011;59407;42.682;23.322;2022-07-26T03:54:00;19.27;;;13.03;;
71570;SDS011;59407;42.682;23.322;2022-07-26T03:56:25;19.93;;;13.23;;
71570;SDS011;59407;42.682;23.322;2022-07-26T03:59:00;18.13;;;12.90;;
71570;SDS011;59407;42.682;23.322;2022-07-26T04:01:30;18.38;;;12.88;;
71570;SDS011;59407;42.682;23.322;2022-07-26T04:03:56;16.63;;;12.50;;
71570;SDS011;59407;42.682;23.322;2022-07-26T04:06:22;17.37;;;12.23;;
71570;SDS011;59407;42.682;23.322;2022-07-26T04:08:47;18.47;;;12.93;;
71570;SDS011;59407;42.682;23.322;2022-07-26T04:11:13;20.15;;;13.45;;
71570;SDS011;59407;42.682;23.322;2022-07-26T04:13:38;20.30;;;14.03;;
71570;SDS011;59407;42.682;23.322;2022-07-26T04:16:04;19.48;;;13.45;;
71570;SDS011;59407;42.682;23.322;2022-07-26T04:18:30;19.30;;;13.67;;
71570;SDS011;59407;42.682;23.322;2022-07-26T04:20:56;20.23;;;13.68;;
71570;SDS011;59407;42.682;23.322;2022-07-26T04:23:21;20.33;;;13.70;;
71570;SDS011;59407;42.682;23.322;2022-07-26T04:25:47;17.63;;;13.23;;
71570;SDS011;59407;42.682;23.322;2022-07-26T04:28:12;17.77;;;12.77;;
71570;SDS011;59407;42.682;23.322;2022-07-26T04:30:38;17.83;;;12.67;;
71570;SDS011;59407;42.682;23.322;2022-07-26T04:33:04;16.58;;;12.27;;
71570;SDS011;59407;42.682;23.322;2022-07-26T04:35:30;17.37;;;12.20;;
71570;SDS011;59407;42.682;23.322;2022-07-26T04:37:55;16.77;;;12.10;;
71570;SDS011;59407;42.682;23.322;2022-07-26T04:40:21;18.83;;;13.70;;
71570;SDS011;59407;42.682;23.322;2022-07-26T04:42:47;18.42;;;13.73;;
71570;SDS011;59407;42.682;23.322;2022-07-26T04:45:13;18.10;;;12.48;;
71570;SDS011;59407;42.682;23.322;2022-07-26T04:47:42;17.70;;;12.43;;
71570;SDS011;59407;42.682;23.322;2022-07-26T04:50:09;17.45;;;12.27;;
71570;SDS011;59407;42.682;23.322;2022-07-26T04:52:36;15.57;;;12.15;;
71570;SDS011;59407;42.682;23.322;2022-07-26T04:55:01;16.83;;;13.17;;
71570;SDS011;59407;42.682;23.322;2022-07-26T04:57:27;16.13;;;12.20;;
71570;SDS011;59407;42.682;23.322;2022-07-26T04:59:52;17.77;;;12.75;;
71570;SDS011;59407;42.682;23.322;2022-07-26T05:02:18;17.77;;;12.70;;
71570;SDS011;59407;42.682;23.322;2022-07-26T05:04:43;17.57;;;12.47;;
71570;SDS011;59407;42.682;23.322;2022-07-26T05:07:09;17.15;;;11.55;;
71570;SDS011;59407;42.682;23.322;2022-07-26T05:09:34;17.40;;;13.17;;
71570;SDS011;59407;42.682;23.322;2022-07-26T05:12:00;16.43;;;11.70;;
71570;SDS011;59407;42.682;23.322;2022-07-26T05:14:25;16.00;;;12.07;;
71570;SDS011;59407;42.682;23.322;2022-07-26T05:16:51;15.83;;;12.00;;
71570;SDS011;59407;42.682;23.322;2022-07-26T05:19:16;17.27;;;12.63;;
71570;SDS011;59407;42.682;23.322;2022-07-26T05:21:42;17.45;;;12.65;;
71570;SDS011;59407;42.682;23.322;2022-07-26T05:24:10;15.80;;;11.63;;
71570;SDS011;59407;42.682;23.322;2022-07-26T05:26:35;16.15;;;11.90;;
71570;SDS011;59407;42.682;23.322;2022-07-26T05:29:01;19.37;;;12.50;;
71570;SDS011;59407;42.682;23.322;2022-07-26T05:31:45;17.48;;;13.05;;
71570;SDS011;59407;42.682;23.322;2022-07-26T05:34:26;19.33;;;12.98;;
71570;SDS011;59407;42.682;23.322;2022-07-26T05:36:55;19.10;;;12.77;;
71570;SDS011;59407;42.682;23.322;2022-07-26T05:42:12;16.38;;;12.50;;
71570;SDS011;59407;42.682;23.322;2022-07-26T05:44:37;15.95;;;12.68;;
71570;SDS011;59407;42.682;23.322;2022-07-26T05:47:03;19.73;;;13.97;;
71570;SDS011;59407;42.682;23.322;2022-07-26T05:49:37;17.70;;;12.90;;
71570;SDS011;59407;42.682;23.322;2022-07-26T05:52:13;17.90;;;12.87;;
71570;SDS011;59407;42.682;23.322;2022-07-26T05:54:42;17.88;;;12.95;;
71570;SDS011;59407;42.682;23.322;2022-07-26T05:59:45;17.87;;;13.20;;
71570;SDS011;59407;42.682;23.322;2022-07-26T06:02:32;16.35;;;11.93;;
71570;SDS011;59407;42.682;23.322;2022-07-26T06:04:57;16.95;;;12.63;;
71570;SDS011;59407;42.682;23.322;2022-07-26T06:07:23;18.40;;;13.57;;
71570;SDS011;59407;42.682;23.322;2022-07-26T06:09:51;19.47;;;13.53;;
71570;SDS011;59407;42.682;23.322;2022-07-26T06:12:26;20.10;;;13.63;;
71570;SDS011;59407;42.682;23.322;2022-07-26T06:14:51;16.67;;;12.73;;
71570;SDS011;59407;42.682;23.322;2022-07-26T06:17:17;19.93;;;13.53;;
71570;SDS011;59407;42.682;23.322;2022-07-26T06:19:43;19.30;;;12.82;;
71570;SDS011;59407;42.682;23.322;2022-07-26T06:22:14;20.77;;;14.97;;
71570;SDS011;59407;42.682;23.322;2022-07-26T06:24:40;22.95;;;15.48;;
71570;SDS011;59407;42.682;23.322;2022-07-26T06:27:05;33.63;;;14.97;;
71570;SDS011;59407;42.682;23.322;2022-07-26T06:29:31;21.08;;;14.25;;
71570;SDS011;59407;42.682;23.322;2022-07-26T06:31:57;18.43;;;13.50;;
71570;SDS011;59407;42.682;23.322;2022-07-26T06:34:22;20.08;;;14.55;;
71570;SDS011;59407;42.682;23.322;2022-07-26T06:36:48;21.90;;;14.93;;
71570;SDS011;59407;42.682;23.322;2022-07-26T06:39:13;25.37;;;14.33;;
71570;SDS011;59407;42.682;23.322;2022-07-26T06:41:40;18.20;;;14.63;;
71570;SDS011;59407;42.682;23.322;2022-07-26T06:44:05;24.03;;;14.20;;
71570;SDS011;59407;42.682;23.322;2022-07-26T06:46:31;25.52;;;14.18;;
71570;SDS011;59407;42.682;23.322;2022-07-26T06:48:56;21.67;;;14.27;;
71570;SDS011;59407;42.682;23.322;2022-07-26T06:51:22;16.37;;;12.17;;
71570;SDS011;59407;42.682;23.322;2022-07-26T06:53:53;18.20;;;12.65;;
71570;SDS011;59407;42.682;23.322;2022-07-26T06:56:19;19.10;;;13.20;;
71570;SDS011;59407;42.682;23.322;2022-07-26T06:58:45;18.47;;;13.17;;
71570;SDS011;59407;42.682;23.322;2022-07-26T07:01:11;18.67;;;12.15;;
71570;SDS011;59407;42.682;23.322;2022-07-26T07:03:36;17.27;;;12.10;;
71570;SDS011;59407;42.682;23.322;2022-07-26T07:06:02;19.60;;;12.80;;
71570;SDS011;59407;42.682;23.322;2022-07-26T07:08:27;19.25;;;13.13;;
71570;SDS011;59407;42.682;23.322;2022-07-26T07:10:53;17.07;;;12.23;;
71570;SDS011;59407;42.682;23.322;2022-07-26T07:13:20;17.40;;;12.55;;
71570;SDS011;59407;42.682;23.322;2022-07-26T07:15:45;18.63;;;12.90;;
71570;SDS011;59407;42.682;23.322;2022-07-26T07:18:11;16.97;;;12.00;;
71570;SDS011;59407;42.682;23.322;2022-07-26T07:20:37;18.63;;;13.53;;
71570;SDS011;59407;42.682;23.322;2022-07-26T07:23:03;17.33;;;12.05;;
71570;SDS011;59407;42.682;23.322;2022-07-26T07:25:29;16.57;;;12.03;;
71570;SDS011;59407;42.682;23.322;2022-07-26T07:27:54;16.90;;;12.53;;
71570;SDS011;59407;42.682;23.322;2022-07-26T07:30:19;16.70;;;12.27;;
71570;SDS011;59407;42.682;23.322;2022-07-26T07:32:45;15.50;;;12.53;;
71570;SDS011;59407;42.682;23.322;2022-07-26T07:35:10;17.43;;;12.67;;
71570;SDS011;59407;42.682;23.322;2022-07-26T07:37:36;15.70;;;11.97;;
71570;SDS011;59407;42.682;23.322;2022-07-26T07:40:04;14.17;;;11.87;;
71570;SDS011;59407;42.682;23.322;2022-07-26T07:42:30;17.45;;;12.10;;
71570;SDS011;59407;42.682;23.322;2022-07-26T07:44:55;23.47;;;18.53;;
71570;SDS011;59407;42.682;23.322;2022-07-26T07:47:21;15.57;;;11.35;;
71570;SDS011;59407;42.682;23.322;2022-07-26T07:49:46;14.63;;;11.40;;
71570;SDS011;59407;42.682;23.322;2022-07-26T07:52:12;17.73;;;11.37;;
71570;SDS011;59407;42.682;23.322;2022-07-26T07:54:37;18.70;;;11.80;;
71570;SDS011;59407;42.682;23.322;2022-07-26T07:57:03;15.32;;;11.05;;
71570;SDS011;59407;42.682;23.322;2022-07-26T07:59:28;15.87;;;12.50;;
71570;SDS011;59407;42.682;23.322;2022-07-26T08:01:53;17.60;;;11.30;;
71570;SDS011;59407;42.682;23.322;2022-07-26T08:04:19;15.63;;;11.83;;
71570;SDS011;59407;42.682;23.322;2022-07-26T08:06:44;15.35;;;11.75;;
71570;SDS011;59407;42.682;23.322;2022-07-26T08:09:10;16.47;;;11.23;;
71570;SDS011;59407;42.682;23.322;2022-07-26T08:11:35;17.40;;;12.00;;
71570;SDS011;59407;42.682;23.322;2022-07-26T08:14:01;13.80;;;11.17;;
71570;SDS011;59407;42.682;23.322;2022-07-26T08:16:26;16.77;;;11.38;;
71570;SDS011;59407;42.682;23.322;2022-07-26T08:18:51;14.20;;;11.60;;
71570;SDS011;59407;42.682;23.322;2022-07-26T08:21:17;16.77;;;11.73;;
71570;SDS011;59407;42.682;23.322;2022-07-26T08:23:42;14.53;;;11.67;;
71570;SDS011;59407;42.682;23.322;2022-07-26T08:26:08;16.55;;;11.63;;
71570;SDS011;59407;42.682;23.322;2022-07-26T08:28:33;17.80;;;11.80;;
71570;SDS011;59407;42.682;23.322;2022-07-26T08:30:59;15.63;;;11.90;;
71570;SDS011;59407;42.682;23.322;2022-07-26T08:33:24;15.67;;;11.50;;
71570;SDS011;59407;42.682;23.322;2022-07-26T08:35:49;15.70;;;11.47;;
71570;SDS011;59407;42.682;23.322;2022-07-26T08:38:15;15.10;;;12.00;;
71570;SDS011;59407;42.682;23.322;2022-07-26T08:40:41;18.10;;;12.50;;
71570;SDS011;59407;42.682;23.322;2022-07-26T08:43:09;15.07;;;11.38;;
71570;SDS011;59407;42.682;23.322;2022-07-26T08:45:35;14.50;;;11.17;;
71570;SDS011;59407;42.682;23.322;2022-07-26T08:48:01;15.75;;;11.63;;
71570;SDS011;59407;42.682;23.322;2022-07-26T08:50:26;15.80;;;12.23;;
71570;SDS011;59407;42.682;23.322;2022-07-26T08:52:58;15.13;;;11.80;;
71570;SDS011;59407;42.682;23.322;2022-07-26T08:55:26;19.42;;;12.60;;
71570;SDS011;59407;42.682;23.322;2022-07-26T08:57:56;16.33;;;11.18;;
71570;SDS011;59407;42.682;23.322;2022-07-26T09:00:23;14.55;;;11.90;;
71570;SDS011;59407;42.682;23.322;2022-07-26T09:05:48;15.93;;;11.63;;
71570;SDS011;59407;42.682;23.322;2022-07-26T09:08:31;14.70;;;11.82;;
71570;SDS011;59407;42.682;23.322;2022-07-26T09:11:01;14.30;;;11.35;;
71570;SDS011;59407;42.682;23.322;2022-07-26T09:13:35;14.47;;;11.00;;
71570;SDS011;59407;42.682;23.322;2022-07-26T09:16:15;15.68;;;12.20;;
71570;SDS011;59407;42.682;23.322;2022-07-26T09:18:41;13.80;;;11.57;;
71570;SDS011;59407;42.682;23.322;2022-07-26T09:21:06;14.23;;;11.33;;
71570;SDS011;59407;42.682;23.322;2022-07-26T09:23:47;14.75;;;12.43;;
71570;SDS011;59407;42.682;23.322;2022-07-26T09:29:11;14.10;;;10.75;;
71570;SDS011;59407;42.682;23.322;2022-07-26T09:31:39;15.57;;;10.73;;
71570;SDS011;59407;42.682;23.322;2022-07-26T09:34:08;15.60;;;11.02;;
71570;SDS011;59407;42.682;23.322;2022-07-26T09:36:48;17.47;;;11.40;;
71570;SDS011;59407;42.682;23.322;2022-07-26T09:39:15;12.98;;;10.55;;
71570;SDS011;59407;42.682;23.322;2022-07-26T09:41:43;13.07;;;10.50;;
71570;SDS011;59407;42.682;23.322;2022-07-26T09:44:22;17.30;;;11.15;;
71570;SDS011;59407;42.682;23.322;2022-07-26T09:46:56;14.20;;;10.77;;
71570;SDS011;59407;42.682;23.322;2022-07-26T09:49:23;14.80;;;10.77;;
71570;SDS011;59407;42.682;23.322;2022-07-26T09:51:52;13.63;;;10.80;;
71570;SDS011;59407;42.682;23.322;2022-07-26T09:56:52;14.85;;;11.73;;
71570;SDS011;59407;42.682;23.322;2022-07-26T09:59:19;13.60;;;10.60;;
71570;SDS011;59407;42.682;23.322;2022-07-26T10:01:45;16.08;;;11.25;;
71570;SDS011;59407;42.682;23.322;2022-07-26T10:04:12;16.20;;;10.90;;
71570;SDS011;59407;42.682;23.322;2022-07-26T10:06:38;15.63;;;12.60;;
71570;SDS011;59407;42.682;23.322;2022-07-26T10:09:04;13.95;;;10.90;;
71570;SDS011;59407;42.682;23.322;2022-07-26T10:17:37;13.50;;;10.40;;
71570;SDS011;59407;42.682;23.322;2022-07-26T10:19:49;15.73;;;11.07;;
71570;SDS011;59407;42.682;23.322;2022-07-26T10:22:25;15.30;;;10.15;;
71570;SDS011;59407;42.682;23.322;2022-07-26T10:24:55;12.30;;;10.27;;
71570;SDS011;59407;42.682;23.322;2022-07-26T10:27:35;13.88;;;11.27;;
71570;SDS011;59407;42.682;23.322;2022-07-26T10:33:05;11.70;;;9.48;;
71570;SDS011;59407;42.682;23.322;2022-07-26T10:37:59;13.60;;;10.27;;
71570;SDS011;59407;42.682;23.322;2022-07-26T10:40:26;12.75;;;10.00;;
71570;SDS011;59407;42.682;23.322;2022-07-26T10:43:13;13.97;;;10.30;;
71570;SDS011;59407;42.682;23.322;2022-07-26T10:45:40;12.60;;;10.98;;
71570;SDS011;59407;42.682;23.322;2022-07-26T10:50:38;12.57;;;9.45;;
71570;SDS011;59407;42.682;23.322;2022-07-26T10:53:05;12.43;;;8.35;;
71570;SDS011;59407;42.682;23.322;2022-07-26T10:55:33;9.83;;;6.80;;
71570;SDS011;59407;42.682;23.322;2022-07-26T10:58:09;9.75;;;7.28;;
71570;SDS011;59407;42.682;23.322;2022-07-26T11:00:35;9.67;;;7.43;;
71570;SDS011;59407;42.682;23.322;2022-07-26T11:03:07;8.63;;;6.95;;
71570;SDS011;59407;42.682;23.322;2022-07-26T11:05:35;10.00;;;7.53;;
71570;SDS011;59407;42.682;23.322;2022-07-26T11:08:01;9.88;;;7.43;;
71570;SDS011;59407;42.682;23.322;2022-07-26T11:13:04;9.60;;;7.25;;
71570;SDS011;59407;42.682;23.322;2022-07-26T11:15:36;9.53;;;7.30;;
71570;SDS011;59407;42.682;23.322;2022-07-26T11:20:32;8.00;;;7.00;;
71570;SDS011;59407;42.682;23.322;2022-07-26T11:22:57;9.87;;;7.43;;
71570;SDS011;59407;42.682;23.322;2022-07-26T11:25:23;9.83;;;6.73;;
71570;SDS011;59407;42.682;23.322;2022-07-26T11:28:01;8.57;;;7.35;;
71570;SDS011;59407;42.682;23.322;2022-07-26T11:30:28;8.50;;;6.97;;
71570;SDS011;59407;42.682;23.322;2022-07-26T11:32:54;9.35;;;7.13;;
71570;SDS011;59407;42.682;23.322;2022-07-26T11:35:22;9.05;;;7.32;;
71570;SDS011;59407;42.682;23.322;2022-07-26T11:37:53;8.55;;;6.68;;
71570;SDS011;59407;42.682;23.322;2022-07-26T11:43:14;9.70;;;8.00;;
71570;SDS011;59407;42.682;23.322;2022-07-26T11:45:54;11.13;;;6.75;;
71570;SDS011;59407;42.682;23.322;2022-07-26T11:48:23;8.88;;;7.07;;
71570;SDS011;59407;42.682;23.322;2022-07-26T11:51:06;9.85;;;6.70;;
71570;SDS011;59407;42.682;23.322;2022-07-26T11:53:35;9.18;;;7.32;;
71570;SDS011;59407;42.682;23.322;2022-07-26T11:58:41;9.40;;;6.25;;
71570;SDS011;59407;42.682;23.322;2022-07-26T12:01:11;8.23;;;6.25;;
71570;SDS011;59407;42.682;23.322;2022-07-26T12:03:38;9.30;;;6.70;;
71570;SDS011;59407;42.682;23.322;2022-07-26T12:06:08;9.00;;;6.20;;
71570;SDS011;59407;42.682;23.322;2022-07-26T12:11:18;9.23;;;6.78;;
71570;SDS011;59407;42.682;23.322;2022-07-26T12:21:46;9.30;;;6.77;;
71570;SDS011;59407;42.682;23.322;2022-07-26T12:27:11;10.40;;;7.63;;
71570;SDS011;59407;42.682;23.322;2022-07-26T12:29:44;9.50;;;7.35;;
71570;SDS011;59407;42.682;23.322;2022-07-26T12:32:15;10.00;;;7.10;;
71570;SDS011;59407;42.682;23.322;2022-07-26T12:34:53;7.83;;;6.47;;
71570;SDS011;59407;42.682;23.322;2022-07-26T12:37:22;9.02;;;7.30;;
71570;SDS011;59407;42.682;23.322;2022-07-26T12:43:55;12.32;;;7.30;;
71570;SDS011;59407;42.682;23.322;2022-07-26T12:49:49;9.67;;;7.17;;
71570;SDS011;59407;42.682;23.322;2022-07-26T12:52:15;10.95;;;8.27;;
71570;SDS011;59407;42.682;23.322;2022-07-26T13:00:34;9.82;;;7.53;;
71570;SDS011;59407;42.682;23.322;2022-07-26T13:02:59;10.10;;;8.13;;
71570;SDS011;59407;42.682;23.322;2022-07-26T13:05:31;10.80;;;8.60;;
71570;SDS011;59407;42.682;23.322;2022-07-26T13:08:22;10.88;;;8.02;;
71570;SDS011;59407;42.682;23.322;2022-07-26T13:26:11;13.27;;;8.00;;
71570;SDS011;59407;42.682;23.322;2022-07-26T13:34:41;11.27;;;8.20;;
71570;SDS011;59407;42.682;23.322;2022-07-26T13:44:22;10.23;;;7.32;;
71570;SDS011;59407;42.682;23.322;2022-07-26T13:50:03;8.38;;;7.13;;
71570;SDS011;59407;42.682;23.322;2022-07-26T13:55:31;9.23;;;7.27;;
71570;SDS011;59407;42.682;23.322;2022-07-26T14:43:25;8.00;;;7.20;;
71570;SDS011;59407;42.682;23.322;2022-07-26T14:46:00;8.82;;;7.93;;
71570;SDS011;59407;42.682;23.322;2022-07-26T14:48:27;9.43;;;7.85;;
71570;SDS011;59407;42.682;23.322;2022-07-26T14:50:55;10.03;;;7.97;;
71570;SDS011;59407;42.682;23.322;2022-07-26T14:53:24;9.27;;;7.82;;
71570;SDS011;59407;42.682;23.322;2022-07-26T14:56:28;11.07;;;8.18;;
71570;SDS011;59407;42.682;23.322;2022-07-26T14:58:53;10.47;;;7.90;;
71570;SDS011;59407;42.682;23.322;2022-07-26T15:01:19;10.73;;;8.33;;
71570;SDS011;59407;42.682;23.322;2022-07-26T15:03:47;12.73;;;9.02;;
71570;SDS011;59407;42.682;23.322;2022-07-26T15:06:23;11.93;;;8.13;;
71570;SDS011;59407;42.682;23.322;2022-07-26T15:09:06;10.38;;;7.80;;
71570;SDS011;59407;42.682;23.322;2022-07-26T15:11:41;9.27;;;8.13;;
71570;SDS011;59407;42.682;23.322;2022-07-26T15:14:09;9.23;;;7.70;;
71570;SDS011;59407;42.682;23.322;2022-07-26T15:16:37;8.52;;;7.18;;
71570;SDS011;59407;42.682;23.322;2022-07-26T15:31:37;8.88;;;7.75;;
71570;SDS011;59407;42.682;23.322;2022-07-26T15:34:26;9.10;;;7.90;;
71570;SDS011;59407;42.682;23.322;2022-07-26T15:37:17;10.40;;;9.07;;
71570;SDS011;59407;42.682;23.322;2022-07-26T15:40:12;8.50;;;7.20;;
71570;SDS011;59407;42.682;23.322;2022-07-26T15:42:45;8.98;;;7.15;;
71570;SDS011;59407;42.682;23.322;2022-07-26T15:45:15;8.95;;;7.70;;
71570;SDS011;59407;42.682;23.322;2022-07-26T15:47:41;9.57;;;7.17;;
71570;SDS011;59407;42.682;23.322;2022-07-26T15:50:15;9.63;;;7.25;;
71570;SDS011;59407;42.682;23.322;2022-07-26T15:52:45;8.80;;;7.05;;
71570;SDS011;59407;42.682;23.322;2022-07-26T15:55:15;8.23;;;7.30;;
71570;SDS011;59407;42.682;23.322;2022-07-26T16:15:14;8.95;;;7.88;;
71570;SDS011;59407;42.682;23.322;2022-07-26T16:17:40;8.50;;;7.60;;
71570;SDS011;59407;42.682;23.322;2022-07-26T16:20:08;7.85;;;7.05;;
71570;SDS011;59407;42.682;23.322;2022-07-26T16:22:46;8.40;;;7.32;;
71570;SDS011;59407;42.682;23.322;2022-07-26T16:28:41;9.13;;;7.88;;
71570;SDS011;59407;42.682;23.322;2022-07-26T16:31:07;11.30;;;7.90;;
71570;SDS011;59407;42.682;23.322;2022-07-26T16:33:32;10.60;;;7.73;;
71570;SDS011;59407;42.682;23.322;2022-07-26T16:35:58;8.75;;;7.60;;
71570;SDS011;59407;42.682;23.322;2022-07-26T16:38:23;10.60;;;7.57;;
71570;SDS011;59407;42.682;23.322;2022-07-26T16:40:48;10.47;;;8.10;;
71570;SDS011;59407;42.682;23.322;2022-07-26T16:43:14;10.03;;;7.87;;
71570;SDS011;59407;42.682;23.322;2022-07-26T16:45:39;9.43;;;7.28;;
71570;SDS011;59407;42.682;23.322;2022-07-26T16:48:05;9.60;;;7.40;;
71570;SDS011;59407;42.682;23.322;2022-07-26T16:50:31;8.93;;;7.65;;
71570;SDS011;59407;42.682;23.322;2022-07-26T16:52:59;8.73;;;7.43;;
71570;SDS011;59407;42.682;23.322;2022-07-26T16:55:27;10.15;;;6.95;;
71570;SDS011;59407;42.682;23.322;2022-07-26T16:57:52;9.20;;;8.17;;
71570;SDS011;59407;42.682;23.322;2022-07-26T17:00:20;11.55;;;7.95;;
71570;SDS011;59407;42.682;23.322;2022-07-26T17:02:48;9.73;;;8.03;;
71570;SDS011;59407;42.682;23.322;2022-07-26T17:05:14;10.43;;;7.63;;
71570;SDS011;59407;42.682;23.322;2022-07-26T17:07:40;10.07;;;8.10;;
71570;SDS011;59407;42.682;23.322;2022-07-26T17:10:06;11.48;;;7.88;;
71570;SDS011;59407;42.682;23.322;2022-07-26T17:12:36;10.50;;;9.40;;
71570;SDS011;59407;42.682;23.322;2022-07-26T17:25:07;12.48;;;9.02;;
71570;SDS011;59407;42.682;23.322;2022-07-26T17:31:01;10.73;;;8.75;;
71570;SDS011;59407;42.682;23.322;2022-07-26T17:33:53;10.43;;;8.87;;
71570;SDS011;59407;42.682;23.322;2022-07-26T17:36:23;12.27;;;9.82;;
71570;SDS011;59407;42.682;23.322;2022-07-26T17:45:19;15.18;;;10.55;;
71570;SDS011;59407;42.682;23.322;2022-07-26T17:51:28;18.08;;;10.23;;
71570;SDS011;59407;42.682;23.322;2022-07-26T17:54:12;17.63;;;10.55;;